Time;durP1;ratioP1;P1;durP2;ratioP2;P2;SDS_P1;SDS_P2;PMS_P1;PMS_P2;Temp;Humidity;BMP_temperature;BMP_pressure;BME280_temperature;BME280_humidity;BME280_pressure;Samples;Min_cycle;Max_cycle;Signal;HPM_P1;HPM_P2
2023/12/20 00:00:15;;;;;;;46.70;19.27;;;;;;;-0.69;100.00;100423.88;5093433;28;20443;-48
2023/12/20 00:02:46;;;;;;;45.35;19.17;;;;;;;-0.41;100.00;100424.41;5112519;28;20511;-43
2023/12/20 00:05:15;;;;;;;46.08;17.98;;;;;;;-0.31;100.00;100424.28;5108232;28;20130;-41
2023/12/20 00:07:43;;;;;;;43.75;17.13;;;;;;;-0.51;100.00;100418.41;5092666;28;20076;-41
2023/12/20 00:10:13;;;;;;;43.03;17.77;;;;;;;-0.63;100.00;100414.19;5111311;28;20071;-43
2023/12/20 00:12:41;;;;;;;48.85;17.17;;;;;;;-0.62;100.00;100409.84;5111312;28;20083;-42
2023/12/20 00:15:10;;;;;;;41.08;17.52;;;;;;;-0.60;100.00;100403.69;5111125;28;20089;-41
2023/12/20 00:17:40;;;;;;;55.40;18.25;;;;;;;-0.41;100.00;100408.69;5113922;28;20496;-41
2023/12/20 00:20:09;;;;;;;61.28;19.63;;;;;;;-0.52;100.00;100398.34;5115649;28;20086;-43
2023/12/20 00:22:38;;;;;;;83.43;19.80;;;;;;;-1.02;100.00;100401.56;5115083;28;20044;-41
2023/12/20 00:25:06;;;;;;;80.47;18.60;;;;;;;-1.25;100.00;100392.22;5114865;28;20043;-41
2023/12/20 00:27:36;;;;;;;71.00;19.67;;;;;;;-1.22;100.00;100394.78;5115270;28;20130;-42
2023/12/20 00:30:05;;;;;;;109.82;20.60;;;;;;;-1.10;100.00;100390.31;5115315;28;20040;-43
2023/12/20 00:32:34;;;;;;;55.70;19.13;;;;;;;-0.80;100.00;100391.72;5115415;28;20044;-41
2023/12/20 00:35:05;;;;;;;53.83;19.83;;;;;;;-0.65;100.00;100389.78;5115364;28;20043;-40
2023/12/20 00:37:34;;;;;;;51.10;18.67;;;;;;;-0.66;100.00;100377.56;5105997;28;20048;-41
2023/12/20 00:40:02;;;;;;;53.47;19.80;;;;;;;-0.84;100.00;100367.31;5098325;28;20043;-41
2023/12/20 00:42:31;;;;;;;59.83;19.05;;;;;;;-1.22;100.00;100373.84;5099851;27;20051;-42
2023/12/20 00:44:59;;;;;;;59.00;17.83;;;;;;;-1.22;100.00;100360.75;5096783;28;20056;-41
2023/12/20 00:47:28;;;;;;;51.60;17.77;;;;;;;-0.97;100.00;100355.22;5096561;28;20043;-45
2023/12/20 00:49:56;;;;;;;56.05;19.38;;;;;;;-0.69;100.00;100348.78;5096431;28;20080;-41
2023/12/20 00:52:26;;;;;;;56.72;19.52;;;;;;;-0.85;100.00;100334.16;5097206;28;20073;-42
2023/12/20 00:54:54;;;;;;;53.35;19.00;;;;;;;-0.98;100.00;100333.41;5112138;28;20047;-41
2023/12/20 00:57:23;;;;;;;56.33;19.80;;;;;;;-0.83;100.00;100342.00;5114608;28;20090;-41
2023/12/20 00:59:51;;;;;;;59.33;19.80;;;;;;;-0.94;100.00;100342.13;5114394;27;20048;-42
2023/12/20 01:02:20;;;;;;;70.93;19.83;;;;;;;-1.00;100.00;100337.81;5114162;28;20086;-41
2023/12/20 01:04:48;;;;;;;57.70;19.27;;;;;;;-0.87;100.00;100343.75;5114352;28;20054;-42
2023/12/20 01:07:16;;;;;;;57.15;18.92;;;;;;;-0.81;100.00;100346.31;5113308;28;20381;-40
2023/12/20 01:09:47;;;;;;;59.08;20.10;;;;;;;-0.95;100.00;100328.16;5102448;28;20079;-40
2023/12/20 01:12:14;;;;;;;71.25;19.42;;;;;;;-0.99;100.00;100331.69;5114011;28;20138;-42
2023/12/20 01:14:43;;;;;;;59.53;19.80;;;;;;;-0.95;100.00;100329.94;5113855;28;20055;-40
2023/12/20 01:17:11;;;;;;;58.92;20.13;;;;;;;-0.87;100.00;100326.31;5113909;28;20079;-41
2023/12/20 01:19:39;;;;;;;59.92;21.02;;;;;;;-0.81;100.00;100325.38;5114298;28;20048;-42
2023/12/20 01:22:08;;;;;;;57.67;20.38;;;;;;;-0.74;100.00;100319.16;5113808;28;20044;-43
2023/12/20 01:24:39;;;;;;;63.53;20.52;;;;;;;-0.69;100.00;100313.84;5114248;28;20059;-42
2023/12/20 01:27:09;;;;;;;63.45;21.23;;;;;;;-0.84;100.00;100309.69;5113881;28;20056;-42
2023/12/20 01:29:37;;;;;;;65.32;21.27;;;;;;;-0.54;100.00;100300.56;5113204;28;20464;-41
2023/12/20 01:32:06;;;;;;;64.60;21.08;;;;;;;-0.57;100.00;100302.38;5098477;28;20123;-42
2023/12/20 01:34:34;;;;;;;66.97;20.55;;;;;;;-0.51;100.00;100297.03;5103420;28;20048;-41
2023/12/20 01:37:03;;;;;;;65.22;20.77;;;;;;;-0.67;100.00;100297.25;5095216;28;20044;-41
2023/12/20 01:39:32;;;;;;;60.00;20.58;;;;;;;-0.58;100.00;100288.38;5113545;28;20484;-41
2023/12/20 01:42:01;;;;;;;67.43;20.75;;;;;;;-0.52;100.00;100284.81;5113440;28;20548;-41
2023/12/20 01:44:30;;;;;;;68.65;19.42;;;;;;;-0.72;100.00;100278.09;5113675;28;20040;-41
2023/12/20 01:46:59;;;;;;;57.47;20.40;;;;;;;-0.49;100.00;100269.03;5113451;28;20044;-40
2023/12/20 01:49:28;;;;;;;61.72;20.25;;;;;;;-0.74;100.00;100264.16;5113639;28;20040;-41
2023/12/20 01:51:57;;;;;;;89.50;21.30;;;;;;;-0.74;100.00;100268.53;5113154;28;20470;-40
2023/12/20 01:54:26;;;;;;;81.15;19.42;;;;;;;-0.90;100.00;100263.50;5113202;28;20155;-41
2023/12/20 01:56:54;;;;;;;110.90;20.85;;;;;;;-1.05;100.00;100262.84;5113411;28;20083;-41
2023/12/20 01:59:23;;;;;;;75.03;21.38;;;;;;;-1.01;100.00;100247.06;5102764;28;20135;-41
2023/12/20 02:01:53;;;;;;;80.88;21.83;;;;;;;-0.82;100.00;100246.81;5092801;28;20050;-40
2023/12/20 02:04:21;;;;;;;98.25;21.70;;;;;;;-0.97;100.00;100234.78;5108604;28;20106;-41
2023/12/20 02:06:53;;;;;;;73.07;22.02;;;;;;;-1.20;100.00;100227.25;5113157;28;20077;-41
2023/12/20 02:09:23;;;;;;;91.10;22.27;;;;;;;-1.38;100.00;100220.50;5094631;28;20131;-41
2023/12/20 02:11:51;;;;;;;82.38;22.45;;;;;;;-1.02;100.00;100213.91;5092977;28;20044;-41
2023/12/20 02:14:20;;;;;;;81.22;24.33;;;;;;;-0.65;100.00;100216.03;5092730;28;20455;-45
2023/12/20 02:16:49;;;;;;;93.47;23.02;;;;;;;-0.78;100.00;100207.44;5091317;28;20048;-41
2023/12/20 02:19:19;;;;;;;72.15;23.15;;;;;;;-0.41;100.00;100202.50;5092546;28;20089;-43
2023/12/20 02:22:05;;;;;;;77.28;23.67;;;;;;;-0.34;100.00;100200.66;5094087;28;20094;-41
2023/12/20 02:24:33;;;;;;;;;;;;;;;-0.37;100.00;100205.97;5113466;28;20051;-40
2023/12/20 02:27:02;;;;;;;67.03;21.98;;;;;;;-0.19;100.00;100199.53;5112618;28;19919;-41
2023/12/20 02:29:32;;;;;;;74.78;22.27;;;;;;;-0.15;100.00;100195.97;5100324;27;20124;-40
2023/12/20 02:32:00;;;;;;;69.57;22.20;;;;;;;-0.28;100.00;100197.97;5092344;28;20457;-41
2023/12/20 02:34:28;;;;;;;73.25;22.80;;;;;;;-0.31;100.00;100196.22;5092002;28;20135;-41
2023/12/20 02:36:58;;;;;;;80.78;22.67;;;;;;;-0.22;100.00;100194.34;5091896;28;20162;-41
2023/12/20 02:39:26;;;;;;;71.80;22.63;;;;;;;-0.17;100.00;100192.53;5100656;28;20036;-41
2023/12/20 02:41:54;;;;;;;96.20;23.20;;;;;;;-0.33;100.00;100181.44;5102470;28;20550;-40
2023/12/20 02:44:23;;;;;;;69.85;21.63;;;;;;;-0.14;100.00;100177.59;5094406;28;20044;-41
2023/12/20 02:46:51;;;;;;;66.32;22.63;;;;;;;-0.24;100.00;100175.16;5091869;28;20052;-43
2023/12/20 02:49:19;;;;;;;66.60;23.70;;;;;;;-0.13;100.00;100170.59;5092178;28;20056;-41
2023/12/20 02:51:48;;;;;;;76.40;23.52;;;;;;;-0.29;100.00;100167.38;5093102;28;20135;-42
2023/12/20 02:54:18;;;;;;;85.95;24.98;;;;;;;-0.17;100.00;100161.94;5112230;28;20504;-41
2023/12/20 02:56:46;;;;;;;72.65;22.88;;;;;;;-0.43;100.00;100161.50;5100492;28;20119;-41
2023/12/20 02:59:14;;;;;;;72.60;23.55;;;;;;;-0.48;100.00;100160.72;5091565;28;20050;-42
2023/12/20 03:01:44;;;;;;;68.40;25.15;;;;;;;-0.45;100.00;100164.16;5091884;28;20052;-42
2023/12/20 03:04:13;;;;;;;84.45;24.52;;;;;;;-0.37;100.00;100148.31;5091716;28;20044;-43
2023/12/20 03:06:44;;;;;;;88.82;23.92;;;;;;;-0.39;100.00;100155.31;5091712;28;20044;-41
2023/12/20 03:09:13;;;;;;;66.20;24.95;;;;;;;-0.23;100.00;100154.16;5091632;28;20134;-42
2023/12/20 03:11:43;;;;;;;66.45;24.83;;;;;;;-0.11;100.00;100150.44;5091649;28;20044;-41
2023/12/20 03:14:11;;;;;;;83.47;26.42;;;;;;;-0.08;100.00;100153.91;5091409;28;20052;-42
2023/12/20 03:16:39;;;;;;;101.72;25.73;;;;;;;-0.32;100.00;100156.94;5091397;28;20051;-42
2023/12/20 03:19:08;;;;;;;70.47;24.42;;;;;;;-0.32;100.00;100157.81;5091321;28;20430;-41
2023/12/20 03:21:36;;;;;;;68.95;25.38;;;;;;;-0.31;100.00;100174.41;5091730;28;20109;-40
2023/12/20 03:24:05;;;;;;;81.82;25.38;;;;;;;-0.24;100.00;100160.31;5091905;28;20071;-41
2023/12/20 03:26:34;;;;;;;68.82;23.60;;;;;;;-0.45;100.00;100165.91;5100209;28;20062;-45
2023/12/20 03:29:03;;;;;;;89.85;24.13;;;;;;;-0.45;100.00;100160.69;5105803;28;20043;-41
2023/12/20 03:31:33;;;;;;;97.07;24.80;;;;;;;-0.55;100.00;100159.09;5108716;28;20075;-42
2023/12/20 03:34:01;;;;;;;71.50;25.65;;;;;;;-0.34;100.00;100169.22;5101118;28;20044;-41
2023/12/20 03:36:37;;;;;;;114.47;25.45;;;;;;;-0.57;100.00;100163.50;5100668;28;20458;-41
2023/12/20 03:39:06;;;;;;;81.18;23.75;;;;;;;-0.47;100.00;100163.31;5102355;28;20069;-42
2023/12/20 03:41:34;;;;;;;101.30;24.50;;;;;;;-0.57;100.00;100163.50;5095099;28;20055;-41
2023/12/20 03:44:04;;;;;;;97.60;23.13;;;;;;;-1.02;100.00;100161.56;5091579;28;20048;-43
2023/12/20 03:46:32;;;;;;;74.47;23.50;;;;;;;-0.85;100.00;100156.09;5091543;28;20055;-42
2023/12/20 03:49:00;;;;;;;74.47;24.67;;;;;;;-0.65;100.00;100163.63;5092424;28;20040;-42
2023/12/20 03:51:32;;;;;;;88.78;25.30;;;;;;;-0.46;100.00;100164.19;5092462;28;20044;-42
2023/12/20 03:54:00;;;;;;;86.35;24.38;;;;;;;-0.43;100.00;100161.50;5097608;28;20050;-42
2023/12/20 03:56:29;;;;;;;80.30;23.55;;;;;;;-0.63;100.00;100154.84;5116113;28;20475;-42
2023/12/20 03:58:57;;;;;;;81.35;23.60;;;;;;;-0.52;100.00;100152.03;5116412;28;20039;-41
2023/12/20 04:01:26;;;;;;;72.03;23.23;;;;;;;-0.56;100.00;100157.38;5116139;28;20067;-43
2023/12/20 04:03:55;;;;;;;83.80;22.85;;;;;;;-0.36;100.00;100147.41;5110171;28;20048;-41
2023/12/20 04:06:23;;;;;;;99.90;23.90;;;;;;;-0.37;100.00;100141.31;5096056;28;20055;-41
2023/12/20 04:08:52;;;;;;;72.47;23.70;;;;;;;-0.36;100.00;100139.56;5106335;28;20391;-42
2023/12/20 04:11:20;;;;;;;78.70;23.10;;;;;;;-0.33;100.00;100144.72;5115816;28;20484;-41
2023/12/20 04:13:48;;;;;;;69.47;22.55;;;;;;;-0.64;100.00;100142.63;5097366;28;20044;-41
2023/12/20 04:16:17;;;;;;;74.72;21.63;;;;;;;-0.36;100.00;100142.19;5095588;28;20147;-42
2023/12/20 04:18:47;;;;;;;78.40;22.52;;;;;;;-0.69;100.00;100143.59;5095071;28;20126;-41
2023/12/20 04:21:17;;;;;;;77.72;23.27;;;;;;;-0.72;100.00;100139.28;5095648;28;20117;-42
2023/12/20 04:23:45;;;;;;;87.13;23.30;;;;;;;-0.73;100.00;100134.94;5112994;28;20071;-42
2023/12/20 04:26:13;;;;;;;98.60;23.60;;;;;;;-0.66;100.00;100123.47;5110016;27;20051;-40
2023/12/20 04:28:42;;;;;;;79.88;24.45;;;;;;;-0.53;100.00;100120.63;5096600;28;20177;-42
2023/12/20 04:31:10;;;;;;;99.82;26.40;;;;;;;-0.59;100.00;100117.22;5096812;28;20067;-41
2023/12/20 04:33:38;;;;;;;75.10;24.30;;;;;;;-0.48;100.00;100111.81;5096761;28;20390;-41
2023/12/20 04:36:09;;;;;;;80.40;25.20;;;;;;;-0.31;100.00;100101.88;5096694;28;20507;-41
2023/12/20 04:38:37;;;;;;;113.35;24.08;;;;;;;-0.67;100.00;100102.53;5100876;28;20482;-43
2023/12/20 04:41:05;;;;;;;72.57;23.90;;;;;;;-0.55;100.00;100101.47;5117541;28;20062;-41
2023/12/20 04:43:34;;;;;;;84.80;26.60;;;;;;;-0.37;100.00;100095.91;5116865;28;20119;-43
2023/12/20 04:46:03;;;;;;;101.88;26.10;;;;;;;-0.41;100.00;100096.81;5117700;28;20123;-41
2023/12/20 04:48:31;;;;;;;80.55;25.92;;;;;;;-0.33;100.00;100087.94;5116327;28;20142;-45
2023/12/20 04:50:59;;;;;;;88.07;27.55;;;;;;;-0.12;100.00;100070.94;5100875;28;20135;-42
2023/12/20 04:53:29;;;;;;;67.30;23.80;;;;;;;-0.04;100.00;100053.28;5096361;28;20044;-44
2023/12/20 04:55:57;;;;;;;77.25;25.45;;;;;;;-0.11;100.00;100054.31;5102589;28;20511;-41
2023/12/20 04:58:26;;;;;;;86.65;24.65;;;;;;;-0.17;100.00;100059.69;5116168;27;20044;-40
2023/12/20 05:00:54;;;;;;;76.53;23.63;;;;;;;-0.22;100.00;100058.91;5106673;28;20086;-42
2023/12/20 05:03:23;;;;;;;66.82;23.60;;;;;;;-0.13;100.00;100053.47;5095194;28;20484;-41
2023/12/20 05:05:51;;;;;;;67.65;24.35;;;;;;;-0.12;100.00;100046.47;5116241;28;20054;-41
2023/12/20 05:08:20;;;;;;;83.18;22.58;;;;;;;0.01;100.00;100044.50;5116401;28;20047;-42
2023/12/20 05:10:49;;;;;;;58.42;23.48;;;;;;;-0.20;100.00;100035.25;5111367;28;20330;-41
2023/12/20 05:13:18;;;;;;;68.78;23.23;;;;;;;-0.08;100.00;100041.16;5098107;28;20048;-43
2023/12/20 05:15:47;;;;;;;63.90;22.73;;;;;;;-0.01;100.00;100036.63;5108367;28;20449;-41
2023/12/20 05:18:15;;;;;;;69.82;24.13;;;;;;;0.03;100.00;100042.69;5114989;28;20051;-41
2023/12/20 05:20:43;;;;;;;67.72;25.48;;;;;;;0.05;100.00;100026.03;5074439;28;20055;-41
2023/12/20 05:23:13;;;;;;;62.63;22.70;;;;;;;0.12;100.00;100026.75;5097396;28;20051;-41
2023/12/20 05:25:41;;;;;;;64.43;23.35;;;;;;;0.14;100.00;100027.59;5104290;28;20668;-43
2023/12/20 05:28:11;;;;;;;59.63;22.65;;;;;;;-0.02;100.00;100020.03;5093851;28;20485;-42
2023/12/20 05:30:39;;;;;;;61.67;22.58;;;;;;;0.11;100.00;100031.16;5094035;28;20412;-47
2023/12/20 05:33:08;;;;;;;89.82;21.98;;;;;;;-0.38;100.00;100042.63;5093944;28;20044;-41
2023/12/20 05:35:36;;;;;;;54.30;21.25;;;;;;;-0.21;100.00;100054.50;5093657;28;20052;-41
2023/12/20 05:38:05;;;;;;;71.43;22.10;;;;;;;-0.25;100.00;100058.97;5108301;28;20039;-42
2023/12/20 05:40:33;;;;;;;58.95;22.00;;;;;;;-0.40;100.00;100051.38;5113821;28;20079;-48
2023/12/20 05:43:02;;;;;;;63.05;23.13;;;;;;;-0.31;100.00;100052.06;5093989;28;20056;-42
2023/12/20 05:45:32;;;;;;;59.45;21.85;;;;;;;-0.18;100.00;100031.75;5093757;28;20040;-42
2023/12/20 05:48:00;;;;;;;64.60;22.70;;;;;;;-0.47;100.00;100031.44;5093585;28;20138;-43
2023/12/20 05:50:28;;;;;;;60.78;21.77;;;;;;;-0.37;100.00;100027.75;5093470;28;20089;-41
2023/12/20 05:52:57;;;;;;;61.95;22.92;;;;;;;-0.25;100.00;100022.28;5093708;28;20048;-40
2023/12/20 05:55:25;;;;;;;63.10;21.48;;;;;;;-0.09;100.00;100017.59;5093596;28;20235;-40
2023/12/20 05:57:54;;;;;;;62.97;21.98;;;;;;;-0.12;100.00;100013.25;5098113;28;20039;-41
2023/12/20 06:00:22;;;;;;;59.40;22.67;;;;;;;-0.22;100.00;100009.09;5114386;28;20089;-41
2023/12/20 06:02:52;;;;;;;61.10;22.95;;;;;;;-0.35;100.00;99999.75;5114383;28;20035;-41
2023/12/20 06:05:20;;;;;;;64.88;24.08;;;;;;;-0.16;100.00;99995.88;5112795;28;20039;-42
2023/12/20 06:07:50;;;;;;;70.00;25.00;;;;;;;-0.04;100.00;99990.34;5112026;28;20491;-43
2023/12/20 06:10:19;;;;;;;65.78;24.35;;;;;;;0.11;100.00;100007.53;5092758;28;20064;-42
2023/12/20 06:12:50;;;;;;;65.13;22.98;;;;;;;0.19;100.00;100003.00;5112059;28;20040;-42
2023/12/20 06:15:18;;;;;;;66.88;24.58;;;;;;;-0.05;100.00;99993.03;5113278;27;20051;-42
2023/12/20 06:17:49;;;;;;;68.78;24.13;;;;;;;-0.02;100.00;99996.44;5113226;28;20079;-42
2023/12/20 06:20:20;;;;;;;65.38;23.90;;;;;;;-0.09;100.00;99992.22;5112643;28;20051;-43
2023/12/20 06:22:48;;;;;;;73.65;24.88;;;;;;;-0.29;100.00;100004.84;5100316;28;20483;-41
2023/12/20 06:25:17;;;;;;;79.47;26.95;;;;;;;-0.55;100.00;100009.75;5092583;28;20162;-43
2023/12/20 06:27:46;;;;;;;71.95;24.85;;;;;;;-0.36;100.00;99998.03;5107335;28;20476;-41
2023/12/20 06:30:16;;;;;;;77.15;25.95;;;;;;;-0.10;100.00;99995.72;5099696;28;20048;-41
2023/12/20 06:32:46;;;;;;;72.95;26.05;;;;;;;0.01;100.00;99997.28;5092275;28;20082;-41
2023/12/20 06:35:15;;;;;;;77.25;26.52;;;;;;;-0.03;100.00;100006.94;5110470;28;20046;-42
2023/12/20 06:37:44;;;;;;;73.93;27.45;;;;;;;-0.10;100.00;100008.84;5112763;27;20130;-42
2023/12/20 06:40:13;;;;;;;81.47;27.27;;;;;;;-0.12;100.00;100018.50;5112889;28;20093;-42
2023/12/20 06:42:45;;;;;;;83.70;26.20;;;;;;;-0.05;100.00;100029.72;5112332;28;20084;-41
2023/12/20 06:45:30;;;;;;;79.95;25.77;;;;;;;0.08;100.00;100039.06;5112045;28;20047;-41
2023/12/20 06:47:59;;;;;;;133.63;27.48;;;;;;;-0.31;100.00;100040.72;5112163;28;20044;-41
2023/12/20 06:50:27;;;;;;;77.80;28.30;;;;;;;-0.03;100.00;100044.53;5097701;28;20050;-40
2023/12/20 06:52:57;;;;;;;74.95;27.25;;;;;;;0.17;100.00;100059.00;5096883;28;20043;-40
2023/12/20 06:55:25;;;;;;;77.30;27.50;;;;;;;-0.05;100.00;100051.56;5096878;28;20057;-41
2023/12/20 06:57:54;;;;;;;103.68;26.73;;;;;;;-0.14;100.00;100062.25;5097713;28;20055;-40
2023/12/20 07:00:22;;;;;;;109.43;27.30;;;;;;;-0.45;100.00;100064.59;5098886;28;20123;-42
2023/12/20 07:02:51;;;;;;;79.50;28.20;;;;;;;-0.17;100.00;100070.16;5096562;28;20054;-40
2023/12/20 07:05:20;;;;;;;104.50;29.05;;;;;;;-0.18;100.00;100076.31;5097206;28;20123;-41
2023/12/20 07:07:48;;;;;;;94.50;29.42;;;;;;;-0.08;100.00;100056.88;5096889;28;20105;-41
2023/12/20 07:10:19;;;;;;;85.57;29.77;;;;;;;0.10;100.00;100046.91;5096639;28;20065;-40
2023/12/20 07:12:48;;;;;;;78.80;27.40;;;;;;;0.02;100.00;100061.94;5097999;28;20036;-41
2023/12/20 07:15:17;;;;;;;75.03;26.23;;;;;;;0.09;100.00;100047.78;5097076;28;20147;-40
2023/12/20 07:17:45;;;;;;;73.97;26.15;;;;;;;0.12;100.00;100047.75;5103222;28;20123;-41
2023/12/20 07:20:14;;;;;;;106.07;27.30;;;;;;;-0.29;100.00;100041.56;5103240;28;20072;-41
2023/12/20 07:22:42;;;;;;;96.10;27.20;;;;;;;-0.23;100.00;100044.06;5091089;28;20386;-44
2023/12/20 07:25:11;;;;;;;72.50;25.95;;;;;;;-0.21;100.00;100044.88;5093230;28;20080;-41
2023/12/20 07:27:41;;;;;;;74.75;25.90;;;;;;;-0.08;100.00;100043.78;5109578;28;20047;-45
2023/12/20 07:30:13;;;;;;;106.75;26.55;;;;;;;-0.30;100.00;100048.56;5098499;28;20501;-42
2023/12/20 07:32:41;;;;;;;87.10;25.67;;;;;;;-0.35;100.00;100052.16;5091546;28;20047;-41
2023/12/20 07:35:09;;;;;;;73.18;25.52;;;;;;;-0.15;100.00;100038.69;5102140;28;20040;-41
2023/12/20 07:37:38;;;;;;;84.28;25.90;;;;;;;-0.09;100.00;100046.44;5090567;28;20040;-42
2023/12/20 07:40:08;;;;;;;75.55;26.10;;;;;;;0.06;100.00;100053.97;5098569;28;20044;-41
2023/12/20 07:42:36;;;;;;;72.72;25.42;;;;;;;-0.01;100.00;100063.72;5108359;28;20361;-41
2023/12/20 07:45:07;;;;;;;66.22;25.95;;;;;;;0.03;100.00;100055.81;5110791;28;20123;-45
2023/12/20 07:47:35;;;;;;;69.72;24.45;;;;;;;0.15;100.00;100047.66;5099996;28;20595;-41
2023/12/20 07:50:04;;;;;;;65.20;25.55;;;;;;;0.17;100.00;100041.50;5098308;28;20051;-41
2023/12/20 07:52:32;;;;;;;77.80;25.83;;;;;;;0.14;100.00;100043.31;5094279;28;20072;-41
2023/12/20 07:55:01;;;;;;;63.45;24.55;;;;;;;0.10;100.00;100034.66;5095112;28;20044;-40
2023/12/20 07:57:30;;;;;;;69.63;25.73;;;;;;;0.07;100.00;100028.59;5098045;28;20503;-41
2023/12/20 07:59:58;;;;;;;59.20;24.65;;;;;;;0.18;100.00;100026.63;5097467;28;20043;-43
2023/12/20 08:02:28;;;;;;;86.10;25.08;;;;;;;-0.12;100.00;100028.97;5096813;28;20068;-41
2023/12/20 08:04:56;;;;;;;67.20;24.88;;;;;;;-0.07;100.00;100026.28;5096396;28;20044;-41
2023/12/20 08:07:24;;;;;;;68.10;24.95;;;;;;;-0.28;100.00;100027.56;5098603;28;20154;-41
2023/12/20 08:09:54;;;;;;;66.93;23.63;;;;;;;-0.20;100.00;100030.88;5092642;28;20058;-41
2023/12/20 08:12:23;;;;;;;69.30;25.73;;;;;;;-0.01;100.00;100023.50;5096103;28;20048;-41
2023/12/20 08:14:51;;;;;;;66.03;25.10;;;;;;;-0.03;100.00;100023.56;5101028;28;20098;-41
2023/12/20 08:17:19;;;;;;;69.63;26.52;;;;;;;0.14;100.00;100019.72;5103397;28;20083;-43
2023/12/20 08:19:49;;;;;;;71.80;25.80;;;;;;;0.18;100.00;100021.38;5098069;28;20104;-42
2023/12/20 08:22:18;;;;;;;71.65;27.48;;;;;;;0.33;100.00;100013.19;5093469;28;20055;-44
2023/12/20 08:24:49;;;;;;;65.47;25.95;;;;;;;0.28;100.00;100017.66;5100312;28;20190;-42
2023/12/20 08:27:26;;;;;;;65.25;24.17;;;;;;;0.35;100.00;100029.75;5091425;28;20445;-43
2023/12/20 08:29:55;;;;;;;62.90;25.08;;;;;;;0.43;100.00;100026.94;5089537;28;20048;-41
2023/12/20 08:32:26;;;;;;;64.25;25.33;;;;;;;0.43;100.00;100026.94;5089164;28;20055;-41
2023/12/20 08:34:56;;;;;;;62.75;24.98;;;;;;;0.16;100.00;100028.41;5090688;28;20051;-42
2023/12/20 08:37:24;;;;;;;62.20;25.23;;;;;;;0.32;100.00;100035.06;5090455;28;20204;-42
2023/12/20 08:39:53;;;;;;;60.25;24.02;;;;;;;0.46;100.00;100032.97;5094859;28;20040;-41
2023/12/20 08:42:21;;;;;;;64.95;24.95;;;;;;;0.59;100.00;100036.22;5096833;28;20184;-41
2023/12/20 08:44:50;;;;;;;63.13;26.52;;;;;;;0.59;100.00;100036.22;5097199;28;20044;-43
2023/12/20 08:47:19;;;;;;;71.97;28.33;;;;;;;0.60;100.00;100031.81;5095875;28;20040;-41
2023/12/20 08:49:48;;;;;;;67.93;27.15;;;;;;;0.61;100.00;100036.19;5094175;28;20508;-42
2023/12/20 08:52:18;;;;;;;75.00;27.38;;;;;;;0.60;100.00;100037.94;5094056;28;20047;-42
2023/12/20 08:54:46;;;;;;;69.65;27.42;;;;;;;0.74;100.00;100037.59;5094704;28;20143;-42
2023/12/20 08:57:15;;;;;;;66.07;26.98;;;;;;;0.80;100.00;100029.59;5094704;28;20451;-42
2023/12/20 08:59:46;;;;;;;69.57;28.27;;;;;;;0.80;100.00;100032.22;5094858;28;20074;-42
2023/12/20 09:02:15;;;;;;;67.35;26.75;;;;;;;0.61;100.00;100033.56;5094132;28;20051;-42
2023/12/20 09:04:43;;;;;;;68.82;28.25;;;;;;;0.49;100.00;100046.06;5094271;28;20048;-42
2023/12/20 09:07:23;;;;;;;63.33;26.15;;;;;;;0.43;100.00;100043.56;5093530;28;20058;-41
2023/12/20 09:09:53;;;;;;;72.22;27.45;;;;;;;0.51;100.00;100041.63;5094059;28;20059;-42
2023/12/20 09:12:21;;;;;;;78.90;27.52;;;;;;;0.55;100.00;100032.78;5093952;28;20467;-41
2023/12/20 09:14:51;;;;;;;71.70;27.77;;;;;;;0.35;100.00;100028.88;5094310;28;20449;-41
2023/12/20 09:17:20;;;;;;;65.63;28.25;;;;;;;0.44;100.00;100021.66;5094576;28;20056;-42
2023/12/20 09:19:48;;;;;;;60.10;26.48;;;;;;;0.67;100.00;100030.75;5094109;28;20404;-42
2023/12/20 09:22:17;;;;;;;68.78;28.00;;;;;;;0.74;100.00;100032.34;5094143;28;20048;-43
2023/12/20 09:24:47;;;;;;;68.55;27.35;;;;;;;0.79;100.00;100033.97;5094067;28;20047;-42
2023/12/20 09:27:16;;;;;;;63.47;26.90;;;;;;;0.70;100.00;100033.34;5093912;28;20074;-42
2023/12/20 09:29:45;;;;;;;68.50;28.20;;;;;;;0.46;100.00;100017.25;5093335;28;20044;-42
2023/12/20 09:32:14;;;;;;;65.03;28.48;;;;;;;0.37;100.00;100016.59;5094368;28;20043;-42
2023/12/20 09:34:42;;;;;;;68.60;28.02;;;;;;;0.48;100.00;100004.97;5094057;28;20476;-41
2023/12/20 09:37:11;;;;;;;70.53;29.33;;;;;;;0.50;100.00;99994.44;5095413;28;20067;-41
2023/12/20 09:39:40;;;;;;;74.28;30.98;;;;;;;0.22;100.00;99997.69;5095386;28;20052;-41
2023/12/20 09:42:13;;;;;;;79.22;31.27;;;;;;;0.41;100.00;99987.63;5094900;28;20048;-43
2023/12/20 09:44:42;;;;;;;77.22;30.77;;;;;;;0.48;100.00;99983.97;5094832;28;20047;-44
2023/12/20 09:47:13;;;;;;;70.43;30.35;;;;;;;0.79;100.00;99988.47;5094820;28;20502;-42
2023/12/20 09:49:44;;;;;;;77.00;29.75;;;;;;;0.97;100.00;99985.41;5093750;28;20047;-43
2023/12/20 09:52:17;;;;;;;77.75;30.58;;;;;;;0.73;100.00;99978.13;5093615;28;20451;-42
2023/12/20 09:54:49;;;;;;;69.32;29.98;;;;;;;0.66;100.00;99989.66;5093266;28;20508;-41
2023/12/20 09:57:19;;;;;;;71.65;30.80;;;;;;;0.71;100.00;99969.44;5093515;28;20125;-43
2023/12/20 09:59:47;;;;;;;76.30;30.02;;;;;;;0.83;100.00;99969.13;5093207;28;20060;-42
2023/12/20 10:02:22;;;;;;;68.25;29.55;;;;;;;0.84;100.00;99971.69;5093226;28;20144;-42
2023/12/20 10:04:51;;;;;;;71.85;30.90;;;;;;;0.86;100.00;99969.03;5093542;28;20075;-41
2023/12/20 10:07:20;;;;;;;76.40;30.10;;;;;;;0.85;100.00;99967.31;5093279;28;20124;-41
2023/12/20 10:09:50;;;;;;;77.22;30.98;;;;;;;0.72;100.00;99955.41;5092977;28;20618;-42
2023/12/20 10:12:19;;;;;;;79.68;33.00;;;;;;;1.03;100.00;99945.84;5092789;28;20101;-44
2023/12/20 10:14:48;;;;;;;79.57;32.40;;;;;;;0.92;100.00;99958.38;5092660;28;20052;-42
2023/12/20 10:17:16;;;;;;;79.60;32.08;;;;;;;0.94;100.00;99938.19;5092680;28;20079;-41
2023/12/20 10:19:46;;;;;;;73.40;32.50;;;;;;;1.09;100.00;99944.81;5092609;28;20555;-42
2023/12/20 10:22:16;;;;;;;87.15;35.10;;;;;;;1.13;100.00;99951.69;5093183;28;20048;-43
2023/12/20 10:24:46;;;;;;;84.28;33.45;;;;;;;1.32;100.00;99952.06;5092741;28;20048;-41
2023/12/20 10:27:19;;;;;;;81.25;32.63;;;;;;;1.29;100.00;99936.41;5092725;28;20050;-41
2023/12/20 10:29:48;;;;;;;87.47;34.53;;;;;;;1.19;100.00;99914.78;5092561;28;20052;-41
2023/12/20 10:32:24;;;;;;;87.35;35.45;;;;;;;1.23;100.00;99905.03;5092355;28;20087;-44
2023/12/20 10:34:54;;;;;;;88.70;34.05;;;;;;;1.37;100.00;99895.00;5092387;28;20044;-41
2023/12/20 10:37:24;;;;;;;91.53;35.00;;;;;;;1.61;100.00;99890.78;5092066;28;20089;-42
2023/12/20 10:39:57;;;;;;;87.55;35.35;;;;;;;1.58;100.00;99894.38;5092583;28;20083;-42
2023/12/20 10:42:28;;;;;;;84.30;34.03;;;;;;;1.70;100.00;99883.50;5092287;28;20448;-42
2023/12/20 10:45:00;;;;;;;92.40;36.22;;;;;;;1.41;100.00;99884.34;5092101;28;20048;-43
2023/12/20 10:47:31;;;;;;;94.25;36.72;;;;;;;1.51;100.00;99877.06;5092009;28;20395;-41
2023/12/20 10:50:02;;;;;;;90.50;37.03;;;;;;;1.77;100.00;99886.81;5091905;28;20131;-42
2023/12/20 10:52:34;;;;;;;90.47;37.53;;;;;;;1.79;100.00;99869.22;5091970;28;20044;-42
2023/12/20 10:55:02;;;;;;;87.53;37.45;;;;;;;1.81;100.00;99867.41;5091819;28;20411;-43
2023/12/20 10:57:31;;;;;;;90.95;36.33;;;;;;;1.87;100.00;99871.63;5092162;28;20448;-41
2023/12/20 11:00:04;;;;;;;96.78;38.22;;;;;;;2.01;100.00;99864.16;5091930;28;20409;-41
2023/12/20 11:02:34;;;;;;;90.13;37.08;;;;;;;2.22;100.00;99865.22;5090674;28;20044;-42
2023/12/20 11:05:11;;;;;;;85.00;35.97;;;;;;;2.42;100.00;99870.72;5091986;28;20044;-42
2023/12/20 11:07:44;;;;;;;86.53;35.85;;;;;;;2.59;100.00;99876.28;5091754;28;20374;-42
2023/12/20 11:10:19;;;;;;;75.00;33.40;;;;;;;2.80;100.00;99877.34;5091536;28;20059;-42
2023/12/20 11:12:53;;;;;;;86.18;34.28;;;;;;;2.87;100.00;99859.53;5091422;28;20041;-43
2023/12/20 11:15:24;;;;;;;;;;;;;;;2.93;100.00;99853.19;5092156;28;20062;-42